sensor_id;sensor_type;location;lat;lon;timestamp;P1;durP1;ratioP1;P2;durP2;ratioP2
9473;SDS011;8865;47.636;7.692;2023-01-20T00:01:05;5.93;;;5.03;;
9473;SDS011;8865;47.636;7.692;2023-01-20T00:03:34;5.80;;;4.97;;
9473;SDS011;8865;47.636;7.692;2023-01-20T00:06:01;6.00;;;5.40;;
9473;SDS011;8865;47.636;7.692;2023-01-20T00:08:27;6.37;;;5.03;;
9473;SDS011;8865;47.636;7.692;2023-01-20T00:10:53;6.80;;;5.23;;
9473;SDS011;8865;47.636;7.692;2023-01-20T00:13:19;5.67;;;4.63;;
9473;SDS011;8865;47.636;7.692;2023-01-20T00:15:45;6.67;;;4.93;;
9473;SDS011;8865;47.636;7.692;2023-01-20T00:18:11;5.73;;;5.00;;
9473;SDS011;8865;47.636;7.692;2023-01-20T00:20:37;7.63;;;5.67;;
9473;SDS011;8865;47.636;7.692;2023-01-20T00:23:03;6.70;;;5.40;;
9473;SDS011;8865;47.636;7.692;2023-01-20T00:25:29;6.57;;;5.67;;
9473;SDS011;8865;47.636;7.692;2023-01-20T00:27:54;8.00;;;5.90;;
9473;SDS011;8865;47.636;7.692;2023-01-20T00:30:20;8.87;;;5.97;;
9473;SDS011;8865;47.636;7.692;2023-01-20T00:32:46;8.63;;;6.63;;
9473;SDS011;8865;47.636;7.692;2023-01-20T00:35:13;8.20;;;6.13;;
9473;SDS011;8865;47.636;7.692;2023-01-20T00:37:42;7.37;;;6.37;;
9473;SDS011;8865;47.636;7.692;2023-01-20T00:40:08;7.97;;;6.87;;
9473;SDS011;8865;47.636;7.692;2023-01-20T00:42:34;8.93;;;7.73;;
9473;SDS011;8865;47.636;7.692;2023-01-20T00:45:00;9.07;;;7.40;;
9473;SDS011;8865;47.636;7.692;2023-01-20T00:47:26;11.33;;;8.10;;
9473;SDS011;8865;47.636;7.692;2023-01-20T00:49:52;9.70;;;8.63;;
9473;SDS011;8865;47.636;7.692;2023-01-20T00:52:18;9.57;;;8.57;;
9473;SDS011;8865;47.636;7.692;2023-01-20T00:54:44;10.03;;;8.47;;
9473;SDS011;8865;47.636;7.692;2023-01-20T00:57:10;10.17;;;8.63;;
9473;SDS011;8865;47.636;7.692;2023-01-20T00:59:37;9.43;;;7.67;;
9473;SDS011;8865;47.636;7.692;2023-01-20T01:02:03;11.37;;;8.70;;
9473;SDS011;8865;47.636;7.692;2023-01-20T01:04:29;9.40;;;7.33;;
9473;SDS011;8865;47.636;7.692;2023-01-20T01:06:55;11.77;;;8.17;;
9473;SDS011;8865;47.636;7.692;2023-01-20T01:09:21;9.13;;;8.00;;
9473;SDS011;8865;47.636;7.692;2023-01-20T01:11:47;9.07;;;7.43;;
9473;SDS011;8865;47.636;7.692;2023-01-20T01:14:13;10.33;;;8.30;;
9473;SDS011;8865;47.636;7.692;2023-01-20T01:16:40;10.03;;;8.47;;
9473;SDS011;8865;47.636;7.692;2023-01-20T01:19:06;10.73;;;9.27;;
9473;SDS011;8865;47.636;7.692;2023-01-20T01:21:32;13.30;;;10.13;;
9473;SDS011;8865;47.636;7.692;2023-01-20T01:23:58;12.23;;;9.60;;
9473;SDS011;8865;47.636;7.692;2023-01-20T01:26:24;12.20;;;10.40;;
9473;SDS011;8865;47.636;7.692;2023-01-20T01:28:50;14.17;;;10.80;;
9473;SDS011;8865;47.636;7.692;2023-01-20T01:31:16;13.10;;;10.47;;
9473;SDS011;8865;47.636;7.692;2023-01-20T01:33:47;12.70;;;9.90;;
9473;SDS011;8865;47.636;7.692;2023-01-20T01:36:14;11.47;;;9.03;;
9473;SDS011;8865;47.636;7.692;2023-01-20T01:38:41;10.90;;;9.80;;
9473;SDS011;8865;47.636;7.692;2023-01-20T01:41:11;11.50;;;9.70;;
9473;SDS011;8865;47.636;7.692;2023-01-20T01:43:39;11.63;;;9.97;;
9473;SDS011;8865;47.636;7.692;2023-01-20T01:46:28;14.17;;;10.93;;
9473;SDS011;8865;47.636;7.692;2023-01-20T01:48:54;12.73;;;10.33;;
9473;SDS011;8865;47.636;7.692;2023-01-20T01:51:24;12.90;;;8.83;;
9473;SDS011;8865;47.636;7.692;2023-01-20T01:53:55;11.70;;;9.10;;
9473;SDS011;8865;47.636;7.692;2023-01-20T01:56:25;12.30;;;10.37;;
9473;SDS011;8865;47.636;7.692;2023-01-20T01:58:53;13.20;;;10.20;;
9473;SDS011;8865;47.636;7.692;2023-01-20T02:01:22;13.50;;;11.37;;
9473;SDS011;8865;47.636;7.692;2023-01-20T02:06:28;14.93;;;11.27;;
9473;SDS011;8865;47.636;7.692;2023-01-20T02:08:58;15.60;;;12.80;;
9473;SDS011;8865;47.636;7.692;2023-01-20T02:11:26;14.63;;;11.83;;
9473;SDS011;8865;47.636;7.692;2023-01-20T02:13:54;15.80;;;11.57;;
9473;SDS011;8865;47.636;7.692;2023-01-20T02:16:36;15.73;;;11.53;;
9473;SDS011;8865;47.636;7.692;2023-01-20T02:33:54;14.03;;;11.80;;
9473;SDS011;8865;47.636;7.692;2023-01-20T02:36:26;14.33;;;11.50;;
9473;SDS011;8865;47.636;7.692;2023-01-20T02:39:06;13.97;;;11.73;;
9473;SDS011;8865;47.636;7.692;2023-01-20T02:41:50;15.00;;;11.87;;
9473;SDS011;8865;47.636;7.692;2023-01-20T02:44:23;14.40;;;11.37;;
9473;SDS011;8865;47.636;7.692;2023-01-20T02:47:02;14.03;;;11.83;;
9473;SDS011;8865;47.636;7.692;2023-01-20T02:49:35;15.57;;;12.20;;
9473;SDS011;8865;47.636;7.692;2023-01-20T02:52:17;15.80;;;12.07;;
9473;SDS011;8865;47.636;7.692;2023-01-20T02:54:53;16.17;;;11.50;;
9473;SDS011;8865;47.636;7.692;2023-01-20T02:57:29;13.33;;;11.33;;
9473;SDS011;8865;47.636;7.692;2023-01-20T03:00:06;11.90;;;10.20;;
9473;SDS011;8865;47.636;7.692;2023-01-20T03:02:36;12.97;;;11.03;;
9473;SDS011;8865;47.636;7.692;2023-01-20T03:05:09;15.93;;;11.10;;
9473;SDS011;8865;47.636;7.692;2023-01-20T03:07:40;12.30;;;11.03;;
9473;SDS011;8865;47.636;7.692;2023-01-20T03:10:12;14.20;;;11.07;;
9473;SDS011;8865;47.636;7.692;2023-01-20T03:15:13;12.23;;;10.90;;
9473;SDS011;8865;47.636;7.692;2023-01-20T03:17:40;13.30;;;11.00;;
9473;SDS011;8865;47.636;7.692;2023-01-20T03:20:06;14.90;;;11.50;;
9473;SDS011;8865;47.636;7.692;2023-01-20T03:22:33;13.50;;;11.00;;
9473;SDS011;8865;47.636;7.692;2023-01-20T03:24:59;13.70;;;11.30;;
9473;SDS011;8865;47.636;7.692;2023-01-20T03:27:25;12.83;;;10.73;;
9473;SDS011;8865;47.636;7.692;2023-01-20T03:29:51;13.57;;;11.20;;
9473;SDS011;8865;47.636;7.692;2023-01-20T03:32:17;13.90;;;11.20;;
9473;SDS011;8865;47.636;7.692;2023-01-20T03:34:50;14.70;;;11.43;;
9473;SDS011;8865;47.636;7.692;2023-01-20T03:37:19;14.10;;;11.30;;
9473;SDS011;8865;47.636;7.692;2023-01-20T03:39:46;13.33;;;11.40;;
9473;SDS011;8865;47.636;7.692;2023-01-20T03:42:16;15.40;;;12.60;;
9473;SDS011;8865;47.636;7.692;2023-01-20T03:52:57;15.97;;;12.13;;
9473;SDS011;8865;47.636;7.692;2023-01-20T03:55:32;13.73;;;11.43;;
9473;SDS011;8865;47.636;7.692;2023-01-20T03:58:04;16.40;;;12.13;;
9473;SDS011;8865;47.636;7.692;2023-01-20T04:00:34;16.07;;;12.10;;
9473;SDS011;8865;47.636;7.692;2023-01-20T04:03:04;15.53;;;12.53;;
9473;SDS011;8865;47.636;7.692;2023-01-20T04:05:33;15.47;;;12.53;;
9473;SDS011;8865;47.636;7.692;2023-01-20T04:08:02;17.37;;;12.47;;
9473;SDS011;8865;47.636;7.692;2023-01-20T04:10:33;14.00;;;11.90;;
9473;SDS011;8865;47.636;7.692;2023-01-20T04:13:03;15.23;;;11.90;;
9473;SDS011;8865;47.636;7.692;2023-01-20T04:15:33;15.10;;;12.57;;
9473;SDS011;8865;47.636;7.692;2023-01-20T04:18:12;18.90;;;13.30;;
9473;SDS011;8865;47.636;7.692;2023-01-20T04:20:41;16.23;;;12.90;;
9473;SDS011;8865;47.636;7.692;2023-01-20T04:23:14;15.03;;;12.13;;
9473;SDS011;8865;47.636;7.692;2023-01-20T04:25:46;16.13;;;13.07;;
9473;SDS011;8865;47.636;7.692;2023-01-20T04:28:12;19.80;;;12.93;;
9473;SDS011;8865;47.636;7.692;2023-01-20T04:30:38;16.40;;;13.07;;
9473;SDS011;8865;47.636;7.692;2023-01-20T04:33:04;16.03;;;13.43;;
9473;SDS011;8865;47.636;7.692;2023-01-20T04:35:30;15.47;;;12.87;;
9473;SDS011;8865;47.636;7.692;2023-01-20T04:37:56;19.03;;;13.60;;
9473;SDS011;8865;47.636;7.692;2023-01-20T04:40:22;15.43;;;13.10;;
9473;SDS011;8865;47.636;7.692;2023-01-20T04:42:48;15.50;;;12.70;;
9473;SDS011;8865;47.636;7.692;2023-01-20T04:45:14;17.13;;;13.67;;
9473;SDS011;8865;47.636;7.692;2023-01-20T04:47:42;16.17;;;12.97;;
9473;SDS011;8865;47.636;7.692;2023-01-20T04:50:09;16.87;;;13.97;;
9473;SDS011;8865;47.636;7.692;2023-01-20T04:52:35;17.13;;;13.03;;
9473;SDS011;8865;47.636;7.692;2023-01-20T04:55:02;18.93;;;13.47;;
9473;SDS011;8865;47.636;7.692;2023-01-20T04:57:28;16.60;;;13.40;;
9473;SDS011;8865;47.636;7.692;2023-01-20T04:59:54;15.43;;;12.77;;
9473;SDS011;8865;47.636;7.692;2023-01-20T05:02:20;16.40;;;13.20;;
9473;SDS011;8865;47.636;7.692;2023-01-20T05:04:46;16.73;;;13.67;;
9473;SDS011;8865;47.636;7.692;2023-01-20T05:07:12;17.17;;;14.53;;
9473;SDS011;8865;47.636;7.692;2023-01-20T05:09:38;15.63;;;13.63;;
9473;SDS011;8865;47.636;7.692;2023-01-20T05:12:04;18.33;;;13.80;;
9473;SDS011;8865;47.636;7.692;2023-01-20T05:14:30;18.63;;;14.00;;
9473;SDS011;8865;47.636;7.692;2023-01-20T05:16:56;17.10;;;13.43;;
9473;SDS011;8865;47.636;7.692;2023-01-20T05:19:22;14.87;;;12.53;;
9473;SDS011;8865;47.636;7.692;2023-01-20T05:21:48;16.50;;;13.33;;
9473;SDS011;8865;47.636;7.692;2023-01-20T05:24:14;17.57;;;12.63;;
9473;SDS011;8865;47.636;7.692;2023-01-20T05:26:40;17.00;;;14.00;;
9473;SDS011;8865;47.636;7.692;2023-01-20T05:29:06;16.33;;;13.40;;
9473;SDS011;8865;47.636;7.692;2023-01-20T05:31:32;15.83;;;12.70;;
9473;SDS011;8865;47.636;7.692;2023-01-20T05:33:58;17.67;;;12.60;;
9473;SDS011;8865;47.636;7.692;2023-01-20T05:36:24;16.30;;;12.87;;
9473;SDS011;8865;47.636;7.692;2023-01-20T05:38:53;14.33;;;11.90;;
9473;SDS011;8865;47.636;7.692;2023-01-20T05:41:19;18.27;;;12.70;;
9473;SDS011;8865;47.636;7.692;2023-01-20T05:43:45;14.67;;;11.70;;
9473;SDS011;8865;47.636;7.692;2023-01-20T05:46:11;15.17;;;11.80;;
9473;SDS011;8865;47.636;7.692;2023-01-20T05:48:37;14.17;;;11.10;;
9473;SDS011;8865;47.636;7.692;2023-01-20T05:51:03;14.53;;;11.73;;
9473;SDS011;8865;47.636;7.692;2023-01-20T05:53:29;13.70;;;10.80;;
9473;SDS011;8865;47.636;7.692;2023-01-20T05:55:58;14.17;;;10.50;;
9473;SDS011;8865;47.636;7.692;2023-01-20T05:58:26;15.20;;;11.17;;
9473;SDS011;8865;47.636;7.692;2023-01-20T06:00:52;13.03;;;10.23;;
9473;SDS011;8865;47.636;7.692;2023-01-20T06:03:18;14.13;;;10.67;;
9473;SDS011;8865;47.636;7.692;2023-01-20T06:05:44;15.27;;;11.50;;
9473;SDS011;8865;47.636;7.692;2023-01-20T06:08:10;14.10;;;12.03;;
9473;SDS011;8865;47.636;7.692;2023-01-20T06:10:36;13.03;;;11.03;;
9473;SDS011;8865;47.636;7.692;2023-01-20T06:13:02;14.63;;;11.00;;
9473;SDS011;8865;47.636;7.692;2023-01-20T06:15:28;14.93;;;12.03;;
9473;SDS011;8865;47.636;7.692;2023-01-20T06:17:54;12.63;;;11.10;;
9473;SDS011;8865;47.636;7.692;2023-01-20T06:20:20;13.90;;;10.37;;
9473;SDS011;8865;47.636;7.692;2023-01-20T06:22:46;25.33;;;17.53;;
9473;SDS011;8865;47.636;7.692;2023-01-20T06:25:12;13.67;;;10.60;;
9473;SDS011;8865;47.636;7.692;2023-01-20T06:27:38;14.10;;;10.50;;
9473;SDS011;8865;47.636;7.692;2023-01-20T06:30:05;14.17;;;9.93;;
9473;SDS011;8865;47.636;7.692;2023-01-20T06:32:31;15.13;;;11.20;;
9473;SDS011;8865;47.636;7.692;2023-01-20T06:34:57;13.53;;;10.70;;
9473;SDS011;8865;47.636;7.692;2023-01-20T06:37:23;13.00;;;9.83;;
9473;SDS011;8865;47.636;7.692;2023-01-20T06:39:49;12.10;;;10.47;;
9473;SDS011;8865;47.636;7.692;2023-01-20T06:42:15;13.50;;;10.40;;
9473;SDS011;8865;47.636;7.692;2023-01-20T06:44:41;13.87;;;10.37;;
9473;SDS011;8865;47.636;7.692;2023-01-20T06:47:07;12.70;;;10.20;;
9473;SDS011;8865;47.636;7.692;2023-01-20T06:49:34;13.87;;;10.77;;
9473;SDS011;8865;47.636;7.692;2023-01-20T06:52:00;13.67;;;10.63;;
9473;SDS011;8865;47.636;7.692;2023-01-20T06:54:26;13.73;;;10.60;;
9473;SDS011;8865;47.636;7.692;2023-01-20T06:56:52;13.80;;;10.67;;
9473;SDS011;8865;47.636;7.692;2023-01-20T06:59:18;13.60;;;10.60;;
9473;SDS011;8865;47.636;7.692;2023-01-20T07:01:44;13.67;;;10.17;;
9473;SDS011;8865;47.636;7.692;2023-01-20T07:04:13;12.47;;;10.10;;
9473;SDS011;8865;47.636;7.692;2023-01-20T07:06:39;13.30;;;10.07;;
9473;SDS011;8865;47.636;7.692;2023-01-20T07:09:07;13.53;;;10.73;;
9473;SDS011;8865;47.636;7.692;2023-01-20T07:11:35;13.43;;;10.20;;
9473;SDS011;8865;47.636;7.692;2023-01-20T07:14:01;13.50;;;10.63;;
9473;SDS011;8865;47.636;7.692;2023-01-20T07:16:28;13.30;;;10.33;;
9473;SDS011;8865;47.636;7.692;2023-01-20T07:18:55;15.47;;;11.33;;
9473;SDS011;8865;47.636;7.692;2023-01-20T07:21:22;13.23;;;10.80;;
9473;SDS011;8865;47.636;7.692;2023-01-20T07:23:48;12.63;;;9.93;;
9473;SDS011;8865;47.636;7.692;2023-01-20T07:26:18;12.10;;;10.03;;
9473;SDS011;8865;47.636;7.692;2023-01-20T07:28:46;15.90;;;10.83;;
9473;SDS011;8865;47.636;7.692;2023-01-20T07:31:13;11.93;;;10.17;;
9473;SDS011;8865;47.636;7.692;2023-01-20T07:33:44;14.80;;;11.33;;
9473;SDS011;8865;47.636;7.692;2023-01-20T07:36:10;12.97;;;10.67;;
9473;SDS011;8865;47.636;7.692;2023-01-20T07:38:37;14.07;;;11.13;;
9473;SDS011;8865;47.636;7.692;2023-01-20T07:41:04;15.60;;;10.90;;
9473;SDS011;8865;47.636;7.692;2023-01-20T07:43:51;14.30;;;10.70;;
9473;SDS011;8865;47.636;7.692;2023-01-20T07:46:18;12.67;;;10.03;;
9473;SDS011;8865;47.636;7.692;2023-01-20T07:48:44;14.23;;;11.50;;
9473;SDS011;8865;47.636;7.692;2023-01-20T07:51:11;14.33;;;11.17;;
9473;SDS011;8865;47.636;7.692;2023-01-20T07:53:40;15.20;;;10.60;;
9473;SDS011;8865;47.636;7.692;2023-01-20T07:56:15;13.83;;;10.77;;
9473;SDS011;8865;47.636;7.692;2023-01-20T07:58:43;15.30;;;11.20;;
9473;SDS011;8865;47.636;7.692;2023-01-20T08:01:11;14.47;;;11.53;;
9473;SDS011;8865;47.636;7.692;2023-01-20T08:03:39;22.07;;;16.07;;
9473;SDS011;8865;47.636;7.692;2023-01-20T08:06:07;18.07;;;13.23;;
9473;SDS011;8865;47.636;7.692;2023-01-20T08:08:34;14.63;;;12.20;;
9473;SDS011;8865;47.636;7.692;2023-01-20T08:11:01;15.90;;;12.37;;
9473;SDS011;8865;47.636;7.692;2023-01-20T08:13:28;15.20;;;12.47;;
9473;SDS011;8865;47.636;7.692;2023-01-20T08:15:54;15.27;;;11.90;;
9473;SDS011;8865;47.636;7.692;2023-01-20T08:18:23;16.43;;;12.70;;
9473;SDS011;8865;47.636;7.692;2023-01-20T08:20:49;15.40;;;12.17;;
9473;SDS011;8865;47.636;7.692;2023-01-20T08:23:15;17.30;;;12.60;;
9473;SDS011;8865;47.636;7.692;2023-01-20T08:25:41;17.23;;;12.47;;
9473;SDS011;8865;47.636;7.692;2023-01-20T08:28:07;16.80;;;12.73;;
9473;SDS011;8865;47.636;7.692;2023-01-20T08:30:34;15.77;;;13.63;;
9473;SDS011;8865;47.636;7.692;2023-01-20T08:32:59;17.93;;;12.83;;
9473;SDS011;8865;47.636;7.692;2023-01-20T08:35:26;14.27;;;12.13;;
9473;SDS011;8865;47.636;7.692;2023-01-20T08:37:52;23.00;;;13.40;;
9473;SDS011;8865;47.636;7.692;2023-01-20T08:40:19;17.67;;;12.83;;
9473;SDS011;8865;47.636;7.692;2023-01-20T08:42:45;19.10;;;13.00;;
9473;SDS011;8865;47.636;7.692;2023-01-20T08:45:11;18.63;;;13.13;;
9473;SDS011;8865;47.636;7.692;2023-01-20T08:47:38;17.33;;;13.30;;
9473;SDS011;8865;47.636;7.692;2023-01-20T08:50:09;16.50;;;13.03;;
9473;SDS011;8865;47.636;7.692;2023-01-20T08:52:36;15.93;;;12.73;;
9473;SDS011;8865;47.636;7.692;2023-01-20T08:55:02;15.80;;;12.67;;
9473;SDS011;8865;47.636;7.692;2023-01-20T08:57:28;17.30;;;13.00;;
9473;SDS011;8865;47.636;7.692;2023-01-20T08:59:54;14.90;;;12.77;;
9473;SDS011;8865;47.636;7.692;2023-01-20T09:02:20;16.40;;;13.27;;
9473;SDS011;8865;47.636;7.692;2023-01-20T09:04:48;15.70;;;12.53;;
9473;SDS011;8865;47.636;7.692;2023-01-20T09:07:15;15.67;;;12.83;;
9473;SDS011;8865;47.636;7.692;2023-01-20T09:09:44;16.27;;;12.57;;
9473;SDS011;8865;47.636;7.692;2023-01-20T09:12:11;15.13;;;12.57;;
9473;SDS011;8865;47.636;7.692;2023-01-20T09:14:37;16.50;;;13.40;;
9473;SDS011;8865;47.636;7.692;2023-01-20T09:17:03;15.80;;;12.47;;
9473;SDS011;8865;47.636;7.692;2023-01-20T09:19:30;14.50;;;12.60;;
9473;SDS011;8865;47.636;7.692;2023-01-20T09:21:56;20.17;;;13.00;;
9473;SDS011;8865;47.636;7.692;2023-01-20T09:24:22;16.90;;;12.63;;
9473;SDS011;8865;47.636;7.692;2023-01-20T09:26:48;14.80;;;12.33;;
9473;SDS011;8865;47.636;7.692;2023-01-20T09:29:16;17.50;;;13.00;;
9473;SDS011;8865;47.636;7.692;2023-01-20T09:31:48;18.70;;;13.70;;
9473;SDS011;8865;47.636;7.692;2023-01-20T09:34:18;17.93;;;13.30;;
9473;SDS011;8865;47.636;7.692;2023-01-20T09:36:49;17.70;;;13.13;;
9473;SDS011;8865;47.636;7.692;2023-01-20T09:39:17;16.50;;;12.67;;
9473;SDS011;8865;47.636;7.692;2023-01-20T09:42:04;18.73;;;13.40;;
9473;SDS011;8865;47.636;7.692;2023-01-20T09:45:16;18.13;;;12.63;;
9473;SDS011;8865;47.636;7.692;2023-01-20T09:51:01;28.83;;;19.87;;
9473;SDS011;8865;47.636;7.692;2023-01-20T09:56:30;16.07;;;13.23;;
9473;SDS011;8865;47.636;7.692;2023-01-20T09:59:06;17.63;;;13.20;;
9473;SDS011;8865;47.636;7.692;2023-01-20T10:01:46;15.67;;;12.40;;
9473;SDS011;8865;47.636;7.692;2023-01-20T10:04:19;15.20;;;12.77;;
9473;SDS011;8865;47.636;7.692;2023-01-20T10:07:01;16.43;;;12.73;;
9473;SDS011;8865;47.636;7.692;2023-01-20T10:10:16;17.10;;;12.87;;
9473;SDS011;8865;47.636;7.692;2023-01-20T10:15:03;16.17;;;12.67;;
9473;SDS011;8865;47.636;7.692;2023-01-20T10:17:38;15.60;;;12.13;;
9473;SDS011;8865;47.636;7.692;2023-01-20T10:25:44;13.67;;;10.73;;
9473;SDS011;8865;47.636;7.692;2023-01-20T10:28:26;15.37;;;10.83;;
9473;SDS011;8865;47.636;7.692;2023-01-20T10:30:57;14.90;;;10.10;;
9473;SDS011;8865;47.636;7.692;2023-01-20T10:33:37;13.33;;;10.70;;
9473;SDS011;8865;47.636;7.692;2023-01-20T10:36:09;13.80;;;10.33;;
9473;SDS011;8865;47.636;7.692;2023-01-20T10:44:10;11.40;;;9.87;;
9473;SDS011;8865;47.636;7.692;2023-01-20T10:54:31;10.17;;;9.00;;
9473;SDS011;8865;47.636;7.692;2023-01-20T10:57:03;12.03;;;9.80;;
9473;SDS011;8865;47.636;7.692;2023-01-20T10:59:31;11.70;;;10.50;;
9473;SDS011;8865;47.636;7.692;2023-01-20T11:02:12;12.43;;;9.87;;
9473;SDS011;8865;47.636;7.692;2023-01-20T11:04:44;12.33;;;10.20;;
9473;SDS011;8865;47.636;7.692;2023-01-20T11:07:17;13.23;;;10.47;;
9473;SDS011;8865;47.636;7.692;2023-01-20T11:09:45;11.87;;;10.40;;
9473;SDS011;8865;47.636;7.692;2023-01-20T11:12:15;11.07;;;9.57;;
9473;SDS011;8865;47.636;7.692;2023-01-20T11:14:45;11.97;;;10.33;;
9473;SDS011;8865;47.636;7.692;2023-01-20T11:17:13;12.57;;;10.63;;
9473;SDS011;8865;47.636;7.692;2023-01-20T11:22:12;9.53;;;8.53;;
9473;SDS011;8865;47.636;7.692;2023-01-20T11:24:45;10.37;;;8.83;;
9473;SDS011;8865;47.636;7.692;2023-01-20T11:27:17;9.93;;;8.43;;
9473;SDS011;8865;47.636;7.692;2023-01-20T11:29:51;9.80;;;8.80;;
9473;SDS011;8865;47.636;7.692;2023-01-20T11:32:33;11.03;;;9.27;;
9473;SDS011;8865;47.636;7.692;2023-01-20T11:35:17;10.27;;;8.90;;
9473;SDS011;8865;47.636;7.692;2023-01-20T11:37:46;10.20;;;9.10;;
9473;SDS011;8865;47.636;7.692;2023-01-20T11:42:49;10.63;;;9.30;;
9473;SDS011;8865;47.636;7.692;2023-01-20T11:45:34;10.27;;;9.23;;
9473;SDS011;8865;47.636;7.692;2023-01-20T11:50:40;10.83;;;8.97;;
9473;SDS011;8865;47.636;7.692;2023-01-20T11:53:40;11.27;;;10.03;;
9473;SDS011;8865;47.636;7.692;2023-01-20T11:56:13;10.50;;;9.00;;
9473;SDS011;8865;47.636;7.692;2023-01-20T11:59:02;10.93;;;9.83;;
9473;SDS011;8865;47.636;7.692;2023-01-20T12:01:29;11.17;;;9.83;;
9473;SDS011;8865;47.636;7.692;2023-01-20T12:07:02;10.33;;;8.87;;
9473;SDS011;8865;47.636;7.692;2023-01-20T12:09:33;12.37;;;9.37;;
9473;SDS011;8865;47.636;7.692;2023-01-20T12:12:16;12.17;;;9.47;;
9473;SDS011;8865;47.636;7.692;2023-01-20T12:15:05;10.40;;;8.90;;
9473;SDS011;8865;47.636;7.692;2023-01-20T12:17:44;9.67;;;8.50;;
9473;SDS011;8865;47.636;7.692;2023-01-20T12:20:16;10.27;;;8.83;;
9473;SDS011;8865;47.636;7.692;2023-01-20T12:26:10;9.37;;;8.37;;
9473;SDS011;8865;47.636;7.692;2023-01-20T12:28:15;10.23;;;9.33;;
9473;SDS011;8865;47.636;7.692;2023-01-20T12:33:34;9.40;;;8.50;;
9473;SDS011;8865;47.636;7.692;2023-01-20T12:36:20;10.17;;;9.17;;
9473;SDS011;8865;47.636;7.692;2023-01-20T12:46:50;9.63;;;8.73;;
9473;SDS011;8865;47.636;7.692;2023-01-20T12:49:42;9.33;;;7.43;;
9473;SDS011;8865;47.636;7.692;2023-01-20T12:55:21;10.03;;;9.10;;
9473;SDS011;8865;47.636;7.692;2023-01-20T13:20:21;8.80;;;7.93;;
9473;SDS011;8865;47.636;7.692;2023-01-20T13:22:49;8.50;;;7.70;;
9473;SDS011;8865;47.636;7.692;2023-01-20T13:25:17;9.20;;;8.30;;
9473;SDS011;8865;47.636;7.692;2023-01-20T13:27:45;8.80;;;8.00;;
9473;SDS011;8865;47.636;7.692;2023-01-20T13:33:03;8.87;;;8.17;;
9473;SDS011;8865;47.636;7.692;2023-01-20T13:37:58;9.60;;;8.73;;
9473;SDS011;8865;47.636;7.692;2023-01-20T13:43:10;12.37;;;11.13;;
9473;SDS011;8865;47.636;7.692;2023-01-20T13:48:31;9.07;;;8.17;;
9473;SDS011;8865;47.636;7.692;2023-01-20T13:53:40;9.07;;;8.20;;
9473;SDS011;8865;47.636;7.692;2023-01-20T13:56:22;8.97;;;8.07;;
9473;SDS011;8865;47.636;7.692;2023-01-20T13:58:57;7.77;;;7.07;;
9473;SDS011;8865;47.636;7.692;2023-01-20T14:01:24;8.23;;;7.47;;
9473;SDS011;8865;47.636;7.692;2023-01-20T14:04:04;8.77;;;7.97;;
9473;SDS011;8865;47.636;7.692;2023-01-20T14:06:32;8.43;;;7.63;;
9473;SDS011;8865;47.636;7.692;2023-01-20T14:09:00;8.03;;;7.30;;
9473;SDS011;8865;47.636;7.692;2023-01-20T14:11:27;7.77;;;7.07;;
9473;SDS011;8865;47.636;7.692;2023-01-20T14:13:58;7.00;;;6.30;;
9473;SDS011;8865;47.636;7.692;2023-01-20T14:16:27;6.97;;;6.30;;
9473;SDS011;8865;47.636;7.692;2023-01-20T14:18:58;6.03;;;5.43;;
9473;SDS011;8865;47.636;7.692;2023-01-20T14:21:27;5.97;;;5.47;;
9473;SDS011;8865;47.636;7.692;2023-01-20T14:23:55;6.43;;;5.93;;
9473;SDS011;8865;47.636;7.692;2023-01-20T14:26:25;5.90;;;5.40;;
9473;SDS011;8865;47.636;7.692;2023-01-20T14:28:53;6.60;;;6.00;;
9473;SDS011;8865;47.636;7.692;2023-01-20T14:31:22;6.80;;;6.20;;
9473;SDS011;8865;47.636;7.692;2023-01-20T14:36:28;7.20;;;6.50;;
9473;SDS011;8865;47.636;7.692;2023-01-20T14:38:57;8.03;;;7.23;;
9473;SDS011;8865;47.636;7.692;2023-01-20T14:41:33;8.17;;;7.47;;
9473;SDS011;8865;47.636;7.692;2023-01-20T14:44:11;7.67;;;6.97;;
9473;SDS011;8865;47.636;7.692;2023-01-20T14:46:44;7.73;;;6.93;;
9473;SDS011;8865;47.636;7.692;2023-01-20T14:49:13;7.50;;;6.80;;
9473;SDS011;8865;47.636;7.692;2023-01-20T14:51:42;8.27;;;6.70;;
9473;SDS011;8865;47.636;7.692;2023-01-20T14:54:31;7.53;;;6.30;;
9473;SDS011;8865;47.636;7.692;2023-01-20T14:59:47;7.47;;;6.67;;
9473;SDS011;8865;47.636;7.692;2023-01-20T15:02:26;8.97;;;6.63;;
9473;SDS011;8865;47.636;7.692;2023-01-20T15:04:55;7.03;;;6.33;;
9473;SDS011;8865;47.636;7.692;2023-01-20T15:07:21;7.77;;;6.70;;
9473;SDS011;8865;47.636;7.692;2023-01-20T15:09:50;7.63;;;6.60;;
9473;SDS011;8865;47.636;7.692;2023-01-20T15:12:30;10.53;;;8.23;;
9473;SDS011;8865;47.636;7.692;2023-01-20T15:15:33;11.53;;;7.30;;
9473;SDS011;8865;47.636;7.692;2023-01-20T15:20:46;8.00;;;6.43;;
9473;SDS011;8865;47.636;7.692;2023-01-20T15:23:21;8.40;;;6.00;;
9473;SDS011;8865;47.636;7.692;2023-01-20T15:25:48;7.03;;;5.90;;
9473;SDS011;8865;47.636;7.692;2023-01-20T15:28:19;6.97;;;5.90;;
9473;SDS011;8865;47.636;7.692;2023-01-20T15:30:50;7.87;;;6.23;;
9473;SDS011;8865;47.636;7.692;2023-01-20T15:33:17;8.80;;;6.80;;
9473;SDS011;8865;47.636;7.692;2023-01-20T15:35:49;7.30;;;6.47;;
9473;SDS011;8865;47.636;7.692;2023-01-20T15:38:19;8.70;;;7.03;;
9473;SDS011;8865;47.636;7.692;2023-01-20T15:40:45;9.07;;;6.90;;
9473;SDS011;8865;47.636;7.692;2023-01-20T15:43:14;8.33;;;6.67;;
9473;SDS011;8865;47.636;7.692;2023-01-20T15:45:42;8.30;;;6.83;;
9473;SDS011;8865;47.636;7.692;2023-01-20T15:48:12;10.63;;;6.90;;
9473;SDS011;8865;47.636;7.692;2023-01-20T15:50:40;8.63;;;6.67;;
9473;SDS011;8865;47.636;7.692;2023-01-20T15:53:08;9.00;;;7.00;;
9473;SDS011;8865;47.636;7.692;2023-01-20T15:55:34;8.30;;;7.10;;
9473;SDS011;8865;47.636;7.692;2023-01-20T15:58:01;9.10;;;6.77;;
9473;SDS011;8865;47.636;7.692;2023-01-20T16:00:29;8.30;;;7.40;;
9473;SDS011;8865;47.636;7.692;2023-01-20T16:02:57;12.27;;;7.43;;
9473;SDS011;8865;47.636;7.692;2023-01-20T16:05:23;10.10;;;8.03;;
9473;SDS011;8865;47.636;7.692;2023-01-20T16:07:49;10.30;;;8.20;;
9473;SDS011;8865;47.636;7.692;2023-01-20T16:10:16;10.57;;;8.13;;
9473;SDS011;8865;47.636;7.692;2023-01-20T16:12:43;14.40;;;8.47;;
9473;SDS011;8865;47.636;7.692;2023-01-20T16:15:13;10.93;;;8.20;;
9473;SDS011;8865;47.636;7.692;2023-01-20T16:17:42;9.77;;;8.43;;
9473;SDS011;8865;47.636;7.692;2023-01-20T16:20:19;12.50;;;8.80;;
9473;SDS011;8865;47.636;7.692;2023-01-20T16:22:47;10.73;;;8.87;;
9473;SDS011;8865;47.636;7.692;2023-01-20T16:25:13;11.30;;;9.00;;
9473;SDS011;8865;47.636;7.692;2023-01-20T16:27:39;12.00;;;9.33;;
9473;SDS011;8865;47.636;7.692;2023-01-20T16:30:05;14.23;;;9.33;;
9473;SDS011;8865;47.636;7.692;2023-01-20T16:32:32;40.27;;;11.07;;
9473;SDS011;8865;47.636;7.692;2023-01-20T16:34:58;14.73;;;8.57;;
9473;SDS011;8865;47.636;7.692;2023-01-20T16:37:24;13.83;;;8.50;;
9473;SDS011;8865;47.636;7.692;2023-01-20T16:39:50;11.20;;;8.43;;
9473;SDS011;8865;47.636;7.692;2023-01-20T16:42:16;10.10;;;8.13;;
9473;SDS011;8865;47.636;7.692;2023-01-20T16:44:42;9.80;;;7.73;;
9473;SDS011;8865;47.636;7.692;2023-01-20T16:47:08;11.23;;;8.70;;
9473;SDS011;8865;47.636;7.692;2023-01-20T16:49:34;10.07;;;8.13;;
9473;SDS011;8865;47.636;7.692;2023-01-20T16:52:00;10.83;;;8.87;;
9473;SDS011;8865;47.636;7.692;2023-01-20T16:54:26;12.57;;;9.83;;
9473;SDS011;8865;47.636;7.692;2023-01-20T16:56:52;11.17;;;9.57;;
9473;SDS011;8865;47.636;7.692;2023-01-20T16:59:18;11.57;;;9.40;;
9473;SDS011;8865;47.636;7.692;2023-01-20T17:01:46;11.60;;;9.13;;
9473;SDS011;8865;47.636;7.692;2023-01-20T17:04:12;15.10;;;9.77;;
9473;SDS011;8865;47.636;7.692;2023-01-20T17:06:38;15.67;;;10.47;;
9473;SDS011;8865;47.636;7.692;2023-01-20T17:09:05;19.43;;;15.40;;
9473;SDS011;8865;47.636;7.692;2023-01-20T17:11:32;19.10;;;15.03;;
9473;SDS011;8865;47.636;7.692;2023-01-20T17:14:04;16.53;;;13.23;;
9473;SDS011;8865;47.636;7.692;2023-01-20T17:16:31;16.37;;;11.77;;
9473;SDS011;8865;47.636;7.692;2023-01-20T17:18:58;12.97;;;10.67;;